메인 페이지
METAR-TAF:

METAR-TAF

공항 :

앤토니오 B. 원 팻 국제공항

하갓냐, 괌, 미국

위도: 13-29N, 경도: 144-48E, 고도: 91m

현재 날씨관측

예보는 53분 전, 18:54시(UTC)에 발표되었습니다.
동북동10kt
온도 26°C
습도 89%
기압 1009 hPa
시정: 16.1km
맑음

METAR: PGUM 181854Z 06010KT 10SM CLR 26/24 A2979 RMK AO2 SLP080 T02560239 $

시각: 05:47 (19:47 UTC)

예보

예보는 2 시간 24분 전, 17:23시(UTC)에 발표되었습니다.
예보 대상 시간: 18일 18시부터 19일 24시까지 (UTC)
동북동8kt
시정: 10km
고도 2000ft 상공 구름 보통
고도 4500ft 상공 구름 보통
시계 내 소나기
19일 0100시부터 (UTC)
동북동13kt, 순간 최대 풍속 23kt
시정: 10km
고도 2000ft 상공 구름 보통
고도 3500ft 상공 구름 보통
시계 내 소나기
19일 0900시부터 (UTC)
동북동9kt
시정: 10km
고도 2000ft 상공 구름 보통
시계 내 소나기,

TAF: PGUM 181723Z 1818/1924 07008KT P6SM VCSH SCT020 SCT045 FM190100 07013G23KT P6SM VCSH SCT020 SCT035 FM190900 07009KT P6SM VCSH SCT020

4,000개 이상의 공항 관측 자료 및 예보 (METAR 및 TAF 보고).

지도상에서 검색 가능한 기상관측소가 노란 점과 빨간 점으로 표시되어 있습니다.

기상관측소 명을 보려면 표시 위로 마우스를 이동하세요.

날씨 관측과 예보를 보려면 클릭하세요.

지도 변경 : 확대하려면 엑스 표시가 있는 녹색 버튼, 축소하려면 빼기 표시가 있는 녹색 버튼, 다음 페이지의 지도를 보려면 녹색 화살표를 클릭하세요.


METAR-TAF: